sensor_id;sensor_type;location;lat;lon;timestamp;temperature;humidity
51619;DHT22;38518;53.164;5.430;2023-03-01T00:01:08;1.30;58.50
51619;DHT22;38518;53.164;5.430;2023-03-01T00:03:35;1.20;54.90
51619;DHT22;38518;53.164;5.430;2023-03-01T00:06:04;1.70;64.50
51619;DHT22;38518;53.164;5.430;2023-03-01T00:08:31;0.80;59.50
51619;DHT22;38518;53.164;5.430;2023-03-01T00:11:18;0.70;66.20
51619;DHT22;38518;53.164;5.430;2023-03-01T00:13:45;0.60;59.60
51619;DHT22;38518;53.164;5.430;2023-03-01T00:16:14;1.30;74.00
51619;DHT22;38518;53.164;5.430;2023-03-01T00:18:40;0.70;70.60
51619;DHT22;38518;53.164;5.430;2023-03-01T00:21:06;2.00;99.90
51619;DHT22;38518;53.164;5.430;2023-03-01T00:23:34;0.20;99.90
51619;DHT22;38518;53.164;5.430;2023-03-01T00:26:06;0.80;95.70
51619;DHT22;38518;53.164;5.430;2023-03-01T00:28:34;0.50;99.10
51619;DHT22;38518;53.164;5.430;2023-03-01T00:31:04;1.00;86.30
51619;DHT22;38518;53.164;5.430;2023-03-01T00:33:30;0.20;96.10
51619;DHT22;38518;53.164;5.430;2023-03-01T00:35:58;0.00;99.90
51619;DHT22;38518;53.164;5.430;2023-03-01T00:38:24;1.90;94.30
51619;DHT22;38518;53.164;5.430;2023-03-01T00:40:50;0.30;99.90
51619;DHT22;38518;53.164;5.430;2023-03-01T00:43:16;1.30;99.90
51619;DHT22;38518;53.164;5.430;2023-03-01T00:45:41;1.00;99.90
51619;DHT22;38518;53.164;5.430;2023-03-01T00:48:07;-0.10;99.90
51619;DHT22;38518;53.164;5.430;2023-03-01T00:50:33;0.90;99.90
51619;DHT22;38518;53.164;5.430;2023-03-01T00:52:59;0.30;99.90
51619;DHT22;38518;53.164;5.430;2023-03-01T00:55:25;0.90;99.90
51619;DHT22;38518;53.164;5.430;2023-03-01T00:57:51;0.20;99.90
51619;DHT22;38518;53.164;5.430;2023-03-01T01:00:18;0.60;99.90
51619;DHT22;38518;53.164;5.430;2023-03-01T01:02:44;-0.30;99.90
51619;DHT22;38518;53.164;5.430;2023-03-01T01:05:10;1.70;99.90
51619;DHT22;38518;53.164;5.430;2023-03-01T01:07:37;1.30;99.90
51619;DHT22;38518;53.164;5.430;2023-03-01T01:10:03;0.40;99.90
51619;DHT22;38518;53.164;5.430;2023-03-01T01:12:29;0.00;99.90
51619;DHT22;38518;53.164;5.430;2023-03-01T01:14:55;0.60;99.90
51619;DHT22;38518;53.164;5.430;2023-03-01T01:17:20;0.10;99.90
51619;DHT22;38518;53.164;5.430;2023-03-01T01:19:46;1.40;99.90
51619;DHT22;38518;53.164;5.430;2023-03-01T01:22:12;0.90;99.90
51619;DHT22;38518;53.164;5.430;2023-03-01T01:24:38;-0.30;99.90
51619;DHT22;38518;53.164;5.430;2023-03-01T01:27:03;0.90;99.90
51619;DHT22;38518;53.164;5.430;2023-03-01T01:29:29;0.30;99.90
51619;DHT22;38518;53.164;5.430;2023-03-01T01:31:55;0.50;99.90
51619;DHT22;38518;53.164;5.430;2023-03-01T01:34:21;0.90;99.90
51619;DHT22;38518;53.164;5.430;2023-03-01T01:36:52;0.70;99.90
51619;DHT22;38518;53.164;5.430;2023-03-01T01:39:27;0.70;99.90
51619;DHT22;38518;53.164;5.430;2023-03-01T01:41:52;0.60;99.90
51619;DHT22;38518;53.164;5.430;2023-03-01T01:44:20;0.70;99.90
51619;DHT22;38518;53.164;5.430;2023-03-01T01:47:07;-0.10;99.90
51619;DHT22;38518;53.164;5.430;2023-03-01T01:49:47;-0.20;99.90
51619;DHT22;38518;53.164;5.430;2023-03-01T01:54:53;0.70;99.90
51619;DHT22;38518;53.164;5.430;2023-03-01T01:57:30;-0.10;99.90
51619;DHT22;38518;53.164;5.430;2023-03-01T02:00:03;-0.10;99.90
51619;DHT22;38518;53.164;5.430;2023-03-01T02:02:29;1.60;99.90
51619;DHT22;38518;53.164;5.430;2023-03-01T02:05:16;0.20;99.90
51619;DHT22;38518;53.164;5.430;2023-03-01T02:07:46;-0.60;99.90
51619;DHT22;38518;53.164;5.430;2023-03-01T02:10:13;0.60;99.90
51619;DHT22;38518;53.164;5.430;2023-03-01T02:12:44;0.20;99.90
51619;DHT22;38518;53.164;5.430;2023-03-01T02:15:11;0.50;99.90
51619;DHT22;38518;53.164;5.430;2023-03-01T02:17:37;-0.20;99.90
51619;DHT22;38518;53.164;5.430;2023-03-01T02:23:23;-0.50;99.90
51619;DHT22;38518;53.164;5.430;2023-03-01T02:25:54;-0.30;99.90
51619;DHT22;38518;53.164;5.430;2023-03-01T02:28:31;-0.80;99.90
51619;DHT22;38518;53.164;5.430;2023-03-01T02:30:57;-0.50;99.90
51619;DHT22;38518;53.164;5.430;2023-03-01T02:33:43;0.90;99.90
51619;DHT22;38518;53.164;5.430;2023-03-01T02:36:59;-0.40;99.90
51619;DHT22;38518;53.164;5.430;2023-03-01T02:39:44;-0.20;99.90
51619;DHT22;38518;53.164;5.430;2023-03-01T02:42:14;0.10;99.90
51619;DHT22;38518;53.164;5.430;2023-03-01T02:44:42;0.90;99.90
51619;DHT22;38518;53.164;5.430;2023-03-01T02:47:08;1.10;99.90
51619;DHT22;38518;53.164;5.430;2023-03-01T02:49:36;0.00;99.90
51619;DHT22;38518;53.164;5.430;2023-03-01T02:52:17;-0.20;99.90
51619;DHT22;38518;53.164;5.430;2023-03-01T02:54:53;-0.20;99.90
51619;DHT22;38518;53.164;5.430;2023-03-01T02:57:23;0.90;99.90
51619;DHT22;38518;53.164;5.430;2023-03-01T02:59:51;0.00;99.90
51619;DHT22;38518;53.164;5.430;2023-03-01T03:02:26;0.00;99.90
51619;DHT22;38518;53.164;5.430;2023-03-01T03:05:13;-0.10;99.90
51619;DHT22;38518;53.164;5.430;2023-03-01T03:07:42;2.20;99.90
51619;DHT22;38518;53.164;5.430;2023-03-01T03:10:17;0.80;99.90
51619;DHT22;38518;53.164;5.430;2023-03-01T03:13:02;-0.40;99.90
51619;DHT22;38518;53.164;5.430;2023-03-01T03:15:29;0.10;99.90
51619;DHT22;38518;53.164;5.430;2023-03-01T03:18:03;0.90;99.90
51619;DHT22;38518;53.164;5.430;2023-03-01T03:20:29;1.40;99.90
51619;DHT22;38518;53.164;5.430;2023-03-01T03:22:56;0.80;99.90
51619;DHT22;38518;53.164;5.430;2023-03-01T03:25:24;0.60;99.90
51619;DHT22;38518;53.164;5.430;2023-03-01T03:27:53;2.20;99.90
51619;DHT22;38518;53.164;5.430;2023-03-01T03:30:24;0.90;99.90
51619;DHT22;38518;53.164;5.430;2023-03-01T03:32:53;1.10;99.90
51619;DHT22;38518;53.164;5.430;2023-03-01T03:35:45;1.00;99.90
51619;DHT22;38518;53.164;5.430;2023-03-01T03:38:13;-0.20;99.90
51619;DHT22;38518;53.164;5.430;2023-03-01T03:40:45;1.40;99.90
51619;DHT22;38518;53.164;5.430;2023-03-01T03:43:15;0.40;99.90
51619;DHT22;38518;53.164;5.430;2023-03-01T03:45:44;0.90;99.90
51619;DHT22;38518;53.164;5.430;2023-03-01T03:48:11;0.70;99.90
51619;DHT22;38518;53.164;5.430;2023-03-01T03:50:38;0.90;99.90
51619;DHT22;38518;53.164;5.430;2023-03-01T03:53:07;0.70;99.90
51619;DHT22;38518;53.164;5.430;2023-03-01T03:55:33;0.90;99.90
51619;DHT22;38518;53.164;5.430;2023-03-01T03:58:01;0.50;99.90
51619;DHT22;38518;53.164;5.430;2023-03-01T04:00:37;-0.30;99.90
51619;DHT22;38518;53.164;5.430;2023-03-01T04:03:03;0.00;99.90
51619;DHT22;38518;53.164;5.430;2023-03-01T04:05:29;0.30;99.90
51619;DHT22;38518;53.164;5.430;2023-03-01T04:07:58;1.60;99.90
51619;DHT22;38518;53.164;5.430;2023-03-01T04:10:31;0.30;99.90
51619;DHT22;38518;53.164;5.430;2023-03-01T04:12:57;0.10;99.90
51619;DHT22;38518;53.164;5.430;2023-03-01T04:15:25;0.30;99.90
51619;DHT22;38518;53.164;5.430;2023-03-01T04:17:53;0.60;99.90
51619;DHT22;38518;53.164;5.430;2023-03-01T04:20:21;1.10;99.90
51619;DHT22;38518;53.164;5.430;2023-03-01T04:22:51;0.10;99.90
51619;DHT22;38518;53.164;5.430;2023-03-01T04:25:18;-0.40;99.90
51619;DHT22;38518;53.164;5.430;2023-03-01T04:27:44;0.20;99.90
51619;DHT22;38518;53.164;5.430;2023-03-01T04:30:10;-0.30;99.90
51619;DHT22;38518;53.164;5.430;2023-03-01T04:32:36;0.10;99.90
51619;DHT22;38518;53.164;5.430;2023-03-01T04:35:02;0.30;99.90
51619;DHT22;38518;53.164;5.430;2023-03-01T04:37:28;0.00;99.90
51619;DHT22;38518;53.164;5.430;2023-03-01T04:39:55;0.20;99.90
51619;DHT22;38518;53.164;5.430;2023-03-01T04:42:21;0.90;99.90
51619;DHT22;38518;53.164;5.430;2023-03-01T04:44:47;0.60;99.90
51619;DHT22;38518;53.164;5.430;2023-03-01T04:47:13;0.90;99.90
51619;DHT22;38518;53.164;5.430;2023-03-01T04:49:38;0.60;99.90
51619;DHT22;38518;53.164;5.430;2023-03-01T04:52:04;1.50;99.90
51619;DHT22;38518;53.164;5.430;2023-03-01T04:54:35;-0.60;99.90
51619;DHT22;38518;53.164;5.430;2023-03-01T04:57:02;0.10;99.90
51619;DHT22;38518;53.164;5.430;2023-03-01T04:59:28;0.10;99.90
51619;DHT22;38518;53.164;5.430;2023-03-01T05:01:56;0.10;99.90
51619;DHT22;38518;53.164;5.430;2023-03-01T05:04:23;0.10;99.90
51619;DHT22;38518;53.164;5.430;2023-03-01T05:06:48;1.10;99.90
51619;DHT22;38518;53.164;5.430;2023-03-01T05:09:14;1.30;99.90
51619;DHT22;38518;53.164;5.430;2023-03-01T05:11:40;0.00;99.90
51619;DHT22;38518;53.164;5.430;2023-03-01T05:14:08;0.10;99.90
51619;DHT22;38518;53.164;5.430;2023-03-01T05:16:35;0.10;99.90
51619;DHT22;38518;53.164;5.430;2023-03-01T05:19:02;0.90;99.90
51619;DHT22;38518;53.164;5.430;2023-03-01T05:21:39;1.50;99.90
51619;DHT22;38518;53.164;5.430;2023-03-01T05:24:25;0.50;99.90
51619;DHT22;38518;53.164;5.430;2023-03-01T05:26:52;1.90;99.90
51619;DHT22;38518;53.164;5.430;2023-03-01T05:29:22;2.40;99.90
51619;DHT22;38518;53.164;5.430;2023-03-01T05:31:59;0.00;99.90
51619;DHT22;38518;53.164;5.430;2023-03-01T05:34:31;0.90;99.90
51619;DHT22;38518;53.164;5.430;2023-03-01T05:36:57;0.40;99.90
51619;DHT22;38518;53.164;5.430;2023-03-01T05:39:25;-0.10;99.90
51619;DHT22;38518;53.164;5.430;2023-03-01T05:41:56;-0.10;99.90
51619;DHT22;38518;53.164;5.430;2023-03-01T05:44:22;1.00;99.90
51619;DHT22;38518;53.164;5.430;2023-03-01T05:46:48;0.10;99.90
51619;DHT22;38518;53.164;5.430;2023-03-01T05:49:15;1.40;99.90
51619;DHT22;38518;53.164;5.430;2023-03-01T05:51:43;0.80;99.90
51619;DHT22;38518;53.164;5.430;2023-03-01T05:54:09;-0.40;99.90
51619;DHT22;38518;53.164;5.430;2023-03-01T05:56:36;1.20;99.90
51619;DHT22;38518;53.164;5.430;2023-03-01T05:59:04;1.20;99.90
51619;DHT22;38518;53.164;5.430;2023-03-01T06:01:34;-0.50;99.90
51619;DHT22;38518;53.164;5.430;2023-03-01T06:04:01;0.20;99.90
51619;DHT22;38518;53.164;5.430;2023-03-01T06:06:27;0.40;99.90
51619;DHT22;38518;53.164;5.430;2023-03-01T06:08:53;0.30;99.90
51619;DHT22;38518;53.164;5.430;2023-03-01T06:11:20;0.60;99.90
51619;DHT22;38518;53.164;5.430;2023-03-01T06:13:47;0.60;99.90
51619;DHT22;38518;53.164;5.430;2023-03-01T06:16:13;-0.80;99.90
51619;DHT22;38518;53.164;5.430;2023-03-01T06:18:40;0.00;99.90
51619;DHT22;38518;53.164;5.430;2023-03-01T06:21:06;0.20;99.90
51619;DHT22;38518;53.164;5.430;2023-03-01T06:23:32;0.00;99.90
51619;DHT22;38518;53.164;5.430;2023-03-01T06:25:58;0.60;99.90
51619;DHT22;38518;53.164;5.430;2023-03-01T06:28:27;-0.20;99.90
51619;DHT22;38518;53.164;5.430;2023-03-01T06:30:55;-0.70;99.90
51619;DHT22;38518;53.164;5.430;2023-03-01T06:33:21;2.00;99.90
51619;DHT22;38518;53.164;5.430;2023-03-01T06:35:49;0.60;99.90
51619;DHT22;38518;53.164;5.430;2023-03-01T06:38:15;1.40;99.90
51619;DHT22;38518;53.164;5.430;2023-03-01T06:40:54;0.00;99.90
51619;DHT22;38518;53.164;5.430;2023-03-01T06:43:27;-1.40;99.90
51619;DHT22;38518;53.164;5.430;2023-03-01T06:45:55;-1.40;99.90
51619;DHT22;38518;53.164;5.430;2023-03-01T06:48:21;1.50;99.90
51619;DHT22;38518;53.164;5.430;2023-03-01T06:50:47;-1.60;99.90
51619;DHT22;38518;53.164;5.430;2023-03-01T06:53:16;0.30;99.90
51619;DHT22;38518;53.164;5.430;2023-03-01T06:55:54;0.00;99.90
51619;DHT22;38518;53.164;5.430;2023-03-01T06:58:30;1.20;99.90
51619;DHT22;38518;53.164;5.430;2023-03-01T07:00:59;1.00;99.90
51619;DHT22;38518;53.164;5.430;2023-03-01T07:03:25;0.50;99.90
51619;DHT22;38518;53.164;5.430;2023-03-01T07:05:51;0.50;99.90
51619;DHT22;38518;53.164;5.430;2023-03-01T07:08:21;0.20;99.90
51619;DHT22;38518;53.164;5.430;2023-03-01T07:11:03;-0.80;99.90
51619;DHT22;38518;53.164;5.430;2023-03-01T07:13:31;-0.20;99.90
51619;DHT22;38518;53.164;5.430;2023-03-01T07:16:06;0.00;99.90
51619;DHT22;38518;53.164;5.430;2023-03-01T07:18:47;1.20;99.90
51619;DHT22;38518;53.164;5.430;2023-03-01T07:21:24;1.40;99.90
51619;DHT22;38518;53.164;5.430;2023-03-01T07:24:02;0.80;99.90
51619;DHT22;38518;53.164;5.430;2023-03-01T07:26:27;-0.20;99.90
51619;DHT22;38518;53.164;5.430;2023-03-01T07:28:55;0.10;99.90
51619;DHT22;38518;53.164;5.430;2023-03-01T07:31:31;0.20;99.90
51619;DHT22;38518;53.164;5.430;2023-03-01T07:34:00;0.50;99.90
51619;DHT22;38518;53.164;5.430;2023-03-01T07:36:32;0.60;99.90
51619;DHT22;38518;53.164;5.430;2023-03-01T07:39:19;0.30;99.90
51619;DHT22;38518;53.164;5.430;2023-03-01T08:33:07;2.40;72.20
51619;DHT22;38518;53.164;5.430;2023-03-01T09:03:23;8.60;1.00
51619;DHT22;38518;53.164;5.430;2023-03-01T09:05:59;6.70;1.00
51619;DHT22;38518;53.164;5.430;2023-03-01T09:08:38;6.70;1.00
51619;DHT22;38518;53.164;5.430;2023-03-01T09:17:59;7.90;1.00
51619;DHT22;38518;53.164;5.430;2023-03-01T09:28:20;9.10;1.00
51619;DHT22;38518;53.164;5.430;2023-03-01T09:31:16;10.40;1.00
51619;DHT22;38518;53.164;5.430;2023-03-01T09:34:06;9.60;1.00
51619;DHT22;38518;53.164;5.430;2023-03-01T09:36:49;9.70;1.00
51619;DHT22;38518;53.164;5.430;2023-03-01T09:43:25;11.50;1.00
51619;DHT22;38518;53.164;5.430;2023-03-01T09:46:07;9.60;1.00
51619;DHT22;38518;53.164;5.430;2023-03-01T09:49:09;10.50;1.00
51619;DHT22;38518;53.164;5.430;2023-03-01T10:01:38;11.60;1.00
51619;DHT22;38518;53.164;5.430;2023-03-01T10:04:38;12.40;1.00
51619;DHT22;38518;53.164;5.430;2023-03-01T10:09:39;14.20;1.00
51619;DHT22;38518;53.164;5.430;2023-03-01T10:12:10;15.00;1.00
51619;DHT22;38518;53.164;5.430;2023-03-01T10:17:42;16.00;1.00
51619;DHT22;38518;53.164;5.430;2023-03-01T10:20:21;16.30;1.00
51619;DHT22;38518;53.164;5.430;2023-03-01T10:22:47;16.50;1.00
51619;DHT22;38518;53.164;5.430;2023-03-01T10:25:29;16.80;1.00
51619;DHT22;38518;53.164;5.430;2023-03-01T10:30:43;17.40;1.00
51619;DHT22;38518;53.164;5.430;2023-03-01T10:33:22;17.20;1.00
51619;DHT22;38518;53.164;5.430;2023-03-01T10:35:49;17.50;1.00
51619;DHT22;38518;53.164;5.430;2023-03-01T10:38:16;17.70;1.00
51619;DHT22;38518;53.164;5.430;2023-03-01T10:41:25;19.60;1.00
51619;DHT22;38518;53.164;5.430;2023-03-01T10:47:00;19.00;1.00
51619;DHT22;38518;53.164;5.430;2023-03-01T16:25:04;11.00;52.10
51619;DHT22;38518;53.164;5.430;2023-03-01T16:27:31;11.30;20.80
51619;DHT22;38518;53.164;5.430;2023-03-01T16:29:59;10.40;83.30
51619;DHT22;38518;53.164;5.430;2023-03-01T16:32:24;10.10;42.50
51619;DHT22;38518;53.164;5.430;2023-03-01T16:34:50;9.70;60.30
51619;DHT22;38518;53.164;5.430;2023-03-01T16:42:22;9.30;1.00
51619;DHT22;38518;53.164;5.430;2023-03-01T16:52:21;8.60;99.90
51619;DHT22;38518;53.164;5.430;2023-03-01T16:54:47;9.10;62.80
51619;DHT22;38518;53.164;5.430;2023-03-01T16:57:14;8.10;1.00
51619;DHT22;38518;53.164;5.430;2023-03-01T16:59:40;8.00;1.00
51619;DHT22;38518;53.164;5.430;2023-03-01T17:02:08;8.00;1.00
51619;DHT22;38518;53.164;5.430;2023-03-01T17:04:36;7.90;1.00
51619;DHT22;38518;53.164;5.430;2023-03-01T17:07:02;7.70;1.00
51619;DHT22;38518;53.164;5.430;2023-03-01T17:09:28;7.40;1.00
51619;DHT22;38518;53.164;5.430;2023-03-01T17:11:54;6.70;1.00
51619;DHT22;38518;53.164;5.430;2023-03-01T17:14:20;7.20;1.00
51619;DHT22;38518;53.164;5.430;2023-03-01T17:16:46;7.20;1.00
51619;DHT22;38518;53.164;5.430;2023-03-01T17:19:12;7.00;1.00
51619;DHT22;38518;53.164;5.430;2023-03-01T17:21:44;6.80;1.00
51619;DHT22;38518;53.164;5.430;2023-03-01T17:24:09;6.80;1.00
51619;DHT22;38518;53.164;5.430;2023-03-01T17:26:35;6.70;1.00
51619;DHT22;38518;53.164;5.430;2023-03-01T17:29:02;6.90;1.00
51619;DHT22;38518;53.164;5.430;2023-03-01T17:31:35;7.00;1.00
51619;DHT22;38518;53.164;5.430;2023-03-01T17:34:01;6.60;1.00
51619;DHT22;38518;53.164;5.430;2023-03-01T17:36:27;6.80;1.00
51619;DHT22;38518;53.164;5.430;2023-03-01T17:38:53;8.20;1.00
51619;DHT22;38518;53.164;5.430;2023-03-01T17:41:19;6.50;1.00
51619;DHT22;38518;53.164;5.430;2023-03-01T17:43:46;6.40;1.00
51619;DHT22;38518;53.164;5.430;2023-03-01T17:46:12;6.40;1.00
51619;DHT22;38518;53.164;5.430;2023-03-01T17:48:38;6.20;70.60
51619;DHT22;38518;53.164;5.430;2023-03-01T17:51:10;8.10;64.80
51619;DHT22;38518;53.164;5.430;2023-03-01T17:56:05;6.20;98.70
51619;DHT22;38518;53.164;5.430;2023-03-01T18:10:59;5.70;1.00
51619;DHT22;38518;53.164;5.430;2023-03-01T18:13:24;5.60;1.00
51619;DHT22;38518;53.164;5.430;2023-03-01T18:15:50;5.50;1.00
51619;DHT22;38518;53.164;5.430;2023-03-01T18:18:17;5.40;1.00
51619;DHT22;38518;53.164;5.430;2023-03-01T18:20:42;5.40;1.00
51619;DHT22;38518;53.164;5.430;2023-03-01T18:23:08;5.50;1.00
51619;DHT22;38518;53.164;5.430;2023-03-01T18:25:38;6.40;1.00
51619;DHT22;38518;53.164;5.430;2023-03-01T18:28:06;5.20;1.00
51619;DHT22;38518;53.164;5.430;2023-03-01T18:30:32;5.90;1.00
51619;DHT22;38518;53.164;5.430;2023-03-01T18:33:00;5.00;1.00
51619;DHT22;38518;53.164;5.430;2023-03-01T18:35:26;5.10;1.00
51619;DHT22;38518;53.164;5.430;2023-03-01T18:37:56;5.70;1.00
51619;DHT22;38518;53.164;5.430;2023-03-01T18:40:22;4.90;1.00
51619;DHT22;38518;53.164;5.430;2023-03-01T18:42:48;4.70;1.00
51619;DHT22;38518;53.164;5.430;2023-03-01T18:45:13;4.90;1.00
51619;DHT22;38518;53.164;5.430;2023-03-01T18:47:41;4.80;1.00
51619;DHT22;38518;53.164;5.430;2023-03-01T18:50:10;4.80;1.00
51619;DHT22;38518;53.164;5.430;2023-03-01T18:52:36;4.80;2.00
51619;DHT22;38518;53.164;5.430;2023-03-01T18:55:09;4.80;4.80
51619;DHT22;38518;53.164;5.430;2023-03-01T18:57:35;4.60;6.30
51619;DHT22;38518;53.164;5.430;2023-03-01T19:00:02;5.20;9.10
51619;DHT22;38518;53.164;5.430;2023-03-01T19:02:28;5.60;3.40
51619;DHT22;38518;53.164;5.430;2023-03-01T19:04:54;4.60;11.80
51619;DHT22;38518;53.164;5.430;2023-03-01T19:07:20;5.20;10.90
51619;DHT22;38518;53.164;5.430;2023-03-01T19:09:46;4.70;16.50
51619;DHT22;38518;53.164;5.430;2023-03-01T19:12:11;4.40;17.70
51619;DHT22;38518;53.164;5.430;2023-03-01T19:14:37;4.80;30.90
51619;DHT22;38518;53.164;5.430;2023-03-01T19:17:03;4.30;27.60
51619;DHT22;38518;53.164;5.430;2023-03-01T19:19:29;5.40;27.50
51619;DHT22;38518;53.164;5.430;2023-03-01T19:21:55;4.80;26.50
51619;DHT22;38518;53.164;5.430;2023-03-01T19:24:21;4.30;27.80
51619;DHT22;38518;53.164;5.430;2023-03-01T19:26:46;4.30;26.80
51619;DHT22;38518;53.164;5.430;2023-03-01T19:29:13;4.30;20.60
51619;DHT22;38518;53.164;5.430;2023-03-01T19:31:38;4.70;21.70
51619;DHT22;38518;53.164;5.430;2023-03-01T19:34:04;4.40;30.40
51619;DHT22;38518;53.164;5.430;2023-03-01T19:36:30;4.40;43.00
51619;DHT22;38518;53.164;5.430;2023-03-01T19:39:04;4.10;34.80
51619;DHT22;38518;53.164;5.430;2023-03-01T19:41:30;4.40;38.80
51619;DHT22;38518;53.164;5.430;2023-03-01T19:43:56;4.20;46.80
51619;DHT22;38518;53.164;5.430;2023-03-01T19:46:23;4.70;47.80
51619;DHT22;38518;53.164;5.430;2023-03-01T19:48:51;4.00;44.00
51619;DHT22;38518;53.164;5.430;2023-03-01T19:51:18;4.90;41.70
51619;DHT22;38518;53.164;5.430;2023-03-01T19:53:44;4.10;42.80
51619;DHT22;38518;53.164;5.430;2023-03-01T19:56:10;3.90;46.70
51619;DHT22;38518;53.164;5.430;2023-03-01T19:58:37;4.40;61.40
51619;DHT22;38518;53.164;5.430;2023-03-01T20:01:03;3.80;51.80
51619;DHT22;38518;53.164;5.430;2023-03-01T20:03:34;3.70;52.40
51619;DHT22;38518;53.164;5.430;2023-03-01T20:06:06;4.00;57.50
51619;DHT22;38518;53.164;5.430;2023-03-01T20:08:32;3.90;60.20
51619;DHT22;38518;53.164;5.430;2023-03-01T20:11:08;3.90;60.20
51619;DHT22;38518;53.164;5.430;2023-03-01T20:13:35;3.60;56.50
51619;DHT22;38518;53.164;5.430;2023-03-01T20:16:01;4.40;68.40
51619;DHT22;38518;53.164;5.430;2023-03-01T20:18:27;3.70;64.90
51619;DHT22;38518;53.164;5.430;2023-03-01T20:20:53;3.60;67.90
51619;DHT22;38518;53.164;5.430;2023-03-01T20:23:19;3.60;68.20
51619;DHT22;38518;53.164;5.430;2023-03-01T20:25:46;4.60;65.70
51619;DHT22;38518;53.164;5.430;2023-03-01T20:28:16;3.60;69.40
51619;DHT22;38518;53.164;5.430;2023-03-01T20:30:42;3.60;67.00
51619;DHT22;38518;53.164;5.430;2023-03-01T20:33:09;3.60;73.80
51619;DHT22;38518;53.164;5.430;2023-03-01T20:35:34;3.90;87.60
51619;DHT22;38518;53.164;5.430;2023-03-01T20:38:04;3.60;89.30
51619;DHT22;38518;53.164;5.430;2023-03-01T20:40:36;4.00;95.60
51619;DHT22;38518;53.164;5.430;2023-03-01T20:43:02;3.70;96.50
51619;DHT22;38518;53.164;5.430;2023-03-01T20:45:29;4.20;93.10
51619;DHT22;38518;53.164;5.430;2023-03-01T20:48:01;3.50;97.90
51619;DHT22;38518;53.164;5.430;2023-03-01T20:50:27;3.80;96.40
51619;DHT22;38518;53.164;5.430;2023-03-01T20:52:53;4.90;97.50
51619;DHT22;38518;53.164;5.430;2023-03-01T20:55:19;4.80;99.90
51619;DHT22;38518;53.164;5.430;2023-03-01T20:57:45;5.00;96.10
51619;DHT22;38518;53.164;5.430;2023-03-01T21:00:11;5.30;99.90
51619;DHT22;38518;53.164;5.430;2023-03-01T21:02:37;3.90;94.50
51619;DHT22;38518;53.164;5.430;2023-03-01T21:05:04;4.00;97.10
51619;DHT22;38518;53.164;5.430;2023-03-01T21:07:30;3.90;97.40
51619;DHT22;38518;53.164;5.430;2023-03-01T21:09:56;3.90;99.90
51619;DHT22;38518;53.164;5.430;2023-03-01T21:12:22;3.90;99.90
51619;DHT22;38518;53.164;5.430;2023-03-01T21:14:47;4.10;99.90
51619;DHT22;38518;53.164;5.430;2023-03-01T21:17:15;4.20;99.90
51619;DHT22;38518;53.164;5.430;2023-03-01T21:19:42;4.20;99.90
51619;DHT22;38518;53.164;5.430;2023-03-01T21:22:09;4.20;98.10
51619;DHT22;38518;53.164;5.430;2023-03-01T21:24:35;3.90;99.30
51619;DHT22;38518;53.164;5.430;2023-03-01T21:27:01;4.00;99.90
51619;DHT22;38518;53.164;5.430;2023-03-01T21:29:40;4.10;99.00
51619;DHT22;38518;53.164;5.430;2023-03-01T21:32:07;5.20;94.80
51619;DHT22;38518;53.164;5.430;2023-03-01T21:34:34;4.00;94.50
51619;DHT22;38518;53.164;5.430;2023-03-01T21:37:04;4.00;97.90
51619;DHT22;38518;53.164;5.430;2023-03-01T21:39:30;4.00;96.80
51619;DHT22;38518;53.164;5.430;2023-03-01T21:41:58;4.10;97.70
51619;DHT22;38518;53.164;5.430;2023-03-01T21:44:25;4.00;97.40
51619;DHT22;38518;53.164;5.430;2023-03-01T21:46:52;4.00;95.80
51619;DHT22;38518;53.164;5.430;2023-03-01T21:49:19;4.00;95.60
51619;DHT22;38518;53.164;5.430;2023-03-01T21:51:45;3.90;94.10
51619;DHT22;38518;53.164;5.430;2023-03-01T21:54:15;3.90;96.50
51619;DHT22;38518;53.164;5.430;2023-03-01T21:56:43;3.80;97.30
51619;DHT22;38518;53.164;5.430;2023-03-01T21:59:22;3.80;95.10
51619;DHT22;38518;53.164;5.430;2023-03-01T22:01:49;3.70;92.90
51619;DHT22;38518;53.164;5.430;2023-03-01T22:04:16;4.10;95.80
51619;DHT22;38518;53.164;5.430;2023-03-01T22:06:45;5.20;95.00
51619;DHT22;38518;53.164;5.430;2023-03-01T22:09:17;3.70;97.60
51619;DHT22;38518;53.164;5.430;2023-03-01T22:11:50;3.60;97.50
51619;DHT22;38518;53.164;5.430;2023-03-01T22:14:17;3.60;99.90
51619;DHT22;38518;53.164;5.430;2023-03-01T22:16:43;3.60;99.90
51619;DHT22;38518;53.164;5.430;2023-03-01T22:19:11;4.20;99.90
51619;DHT22;38518;53.164;5.430;2023-03-01T22:21:39;3.80;99.90
51619;DHT22;38518;53.164;5.430;2023-03-01T22:24:05;4.20;99.90
51619;DHT22;38518;53.164;5.430;2023-03-01T22:26:35;3.70;99.90
51619;DHT22;38518;53.164;5.430;2023-03-01T22:29:03;3.60;99.90
51619;DHT22;38518;53.164;5.430;2023-03-01T22:31:30;4.30;99.90
51619;DHT22;38518;53.164;5.430;2023-03-01T22:33:57;3.60;99.90
51619;DHT22;38518;53.164;5.430;2023-03-01T22:36:24;3.70;99.90
51619;DHT22;38518;53.164;5.430;2023-03-01T22:38:50;3.70;99.90
51619;DHT22;38518;53.164;5.430;2023-03-01T22:41:23;3.70;99.90
51619;DHT22;38518;53.164;5.430;2023-03-01T22:43:49;3.70;99.90
51619;DHT22;38518;53.164;5.430;2023-03-01T22:46:17;3.80;99.90
51619;DHT22;38518;53.164;5.430;2023-03-01T22:48:45;3.90;99.90
51619;DHT22;38518;53.164;5.430;2023-03-01T22:51:17;3.20;99.90
51619;DHT22;38518;53.164;5.430;2023-03-01T22:53:43;3.60;99.90
51619;DHT22;38518;53.164;5.430;2023-03-01T22:56:15;3.80;99.90
51619;DHT22;38518;53.164;5.430;2023-03-01T22:58:42;3.50;99.90
51619;DHT22;38518;53.164;5.430;2023-03-01T23:01:10;3.60;99.90
51619;DHT22;38518;53.164;5.430;2023-03-01T23:03:36;3.70;99.90
51619;DHT22;38518;53.164;5.430;2023-03-01T23:06:02;4.70;99.90
51619;DHT22;38518;53.164;5.430;2023-03-01T23:08:27;3.60;99.90
51619;DHT22;38518;53.164;5.430;2023-03-01T23:10:53;3.50;99.90
51619;DHT22;38518;53.164;5.430;2023-03-01T23:13:19;3.70;99.90
51619;DHT22;38518;53.164;5.430;2023-03-01T23:15:45;3.70;99.90
51619;DHT22;38518;53.164;5.430;2023-03-01T23:18:10;3.90;99.90
51619;DHT22;38518;53.164;5.430;2023-03-01T23:20:36;3.60;99.90
51619;DHT22;38518;53.164;5.430;2023-03-01T23:23:02;3.80;99.90
51619;DHT22;38518;53.164;5.430;2023-03-01T23:25:28;3.50;99.90
51619;DHT22;38518;53.164;5.430;2023-03-01T23:27:54;3.50;99.90
51619;DHT22;38518;53.164;5.430;2023-03-01T23:30:20;3.60;99.90
51619;DHT22;38518;53.164;5.430;2023-03-01T23:32:46;4.00;99.90
51619;DHT22;38518;53.164;5.430;2023-03-01T23:35:11;3.80;99.90
51619;DHT22;38518;53.164;5.430;2023-03-01T23:37:38;3.50;99.90
51619;DHT22;38518;53.164;5.430;2023-03-01T23:40:05;3.80;99.90
51619;DHT22;38518;53.164;5.430;2023-03-01T23:42:32;3.40;99.90
51619;DHT22;38518;53.164;5.430;2023-03-01T23:44:58;3.70;99.90
51619;DHT22;38518;53.164;5.430;2023-03-01T23:47:27;4.60;99.90
51619;DHT22;38518;53.164;5.430;2023-03-01T23:49:53;3.40;99.90
51619;DHT22;38518;53.164;5.430;2023-03-01T23:52:22;3.40;99.90
51619;DHT22;38518;53.164;5.430;2023-03-01T23:54:47;3.50;99.90
51619;DHT22;38518;53.164;5.430;2023-03-01T23:57:13;4.30;99.90
51619;DHT22;38518;53.164;5.430;2023-03-01T23:59:39;3.80;99.90
